createdAt,value
2019-04-09T00:00:04.314Z,8.40
2019-04-09T00:01:04.430Z,8.40
2019-04-09T00:02:04.910Z,8.30
2019-04-09T00:03:04.914Z,8.30
2019-04-09T00:04:05.076Z,8.20
2019-04-09T00:05:04.201Z,8.20
2019-04-09T00:06:04.871Z,8.20
2019-04-09T00:07:04.793Z,8.20
2019-04-09T00:08:06.654Z,8.20
2019-04-09T00:09:04.877Z,8.10
2019-04-09T00:10:05.887Z,8.10
2019-04-09T00:11:05.579Z,8.10
2019-04-09T00:12:04.790Z,8.10
2019-04-09T00:13:05.070Z,8.10
2019-04-09T00:14:05.152Z,8.10
2019-04-09T00:15:05.035Z,8.10
2019-04-09T00:16:04.878Z,8.10
2019-04-09T00:17:05.243Z,8.00
2019-04-09T00:18:04.688Z,8.00
2019-04-09T00:19:04.801Z,8.00
2019-04-09T00:20:04.866Z,8.00
2019-04-09T00:21:06.046Z,8.00
2019-04-09T00:22:04.811Z,8.00
2019-04-09T00:23:05.902Z,8.00
2019-04-09T00:24:05.132Z,8.00
2019-04-09T00:25:06.110Z,7.90
2019-04-09T00:26:04.946Z,7.90
2019-04-09T00:27:04.496Z,7.90
2019-04-09T00:28:05.569Z,7.80
2019-04-09T00:29:04.348Z,7.80
2019-04-09T00:30:04.618Z,7.80
2019-04-09T00:31:05.163Z,7.80
2019-04-09T00:32:04.843Z,7.80
2019-04-09T00:33:05.646Z,7.80
2019-04-09T00:34:04.757Z,7.80
2019-04-09T00:35:04.930Z,7.80
2019-04-09T00:36:05.075Z,7.70
2019-04-09T00:37:04.791Z,7.70
2019-04-09T00:38:04.905Z,7.70
2019-04-09T00:39:05.052Z,7.70
2019-04-09T00:40:05.753Z,7.70
2019-04-09T00:41:04.781Z,7.70
2019-04-09T00:42:04.850Z,7.60
2019-04-09T00:43:10.239Z,7.60
2019-04-09T00:44:04.915Z,7.60
2019-04-09T00:45:05.875Z,7.60
2019-04-09T00:46:04.778Z,7.60
2019-04-09T00:47:05.893Z,7.60
2019-04-09T00:48:05.122Z,7.50
2019-04-09T00:49:05.044Z,7.50
2019-04-09T00:50:05.045Z,7.50
2019-04-09T00:51:04.937Z,7.50
2019-04-09T00:52:06.109Z,7.50
2019-04-09T00:53:04.858Z,7.50
2019-04-09T00:54:05.031Z,7.50
2019-04-09T00:55:04.775Z,7.50
2019-04-09T00:56:04.953Z,7.50
2019-04-09T00:57:07.839Z,7.50
2019-04-09T00:58:05.023Z,7.50
2019-04-09T00:59:05.485Z,7.50
2019-04-09T01:00:04.311Z,7.50
2019-04-09T01:01:05.639Z,7.50
2019-04-09T01:02:04.482Z,7.50
2019-04-09T01:03:05.624Z,7.50
2019-04-09T01:04:09.332Z,7.50
2019-04-09T01:05:04.772Z,7.50
2019-04-09T01:06:05.258Z,7.40
2019-04-09T01:07:04.668Z,7.40
2019-04-09T01:08:04.915Z,7.50
2019-04-09T01:09:04.831Z,7.40
2019-04-09T01:10:05.882Z,7.40
2019-04-09T01:11:05.349Z,7.40
2019-04-09T01:12:05.008Z,7.40
2019-04-09T01:13:04.622Z,7.50
2019-04-09T01:14:04.933Z,7.40
2019-04-09T01:15:04.727Z,7.50
2019-04-09T01:16:05.224Z,7.50
2019-04-09T01:17:05.158Z,7.50
2019-04-09T01:18:04.919Z,7.50
2019-04-09T01:19:11.791Z,7.50
2019-04-09T01:20:05.006Z,7.50
2019-04-09T01:21:05.131Z,7.50
2019-04-09T01:22:05.202Z,7.50
2019-04-09T01:23:04.465Z,7.50
2019-04-09T01:24:05.293Z,7.60
2019-04-09T01:25:06.124Z,7.60
2019-04-09T01:26:05.968Z,7.60
2019-04-09T01:27:13.456Z,7.60
2019-04-09T01:28:06.047Z,7.60
2019-04-09T01:29:05.412Z,7.60
2019-04-09T01:30:05.339Z,7.70
2019-04-09T01:31:05.212Z,7.70
2019-04-09T01:32:04.330Z,7.70
2019-04-09T01:33:05.141Z,7.70
2019-04-09T01:34:05.469Z,7.70
2019-04-09T01:35:04.257Z,7.70
2019-04-09T01:36:05.406Z,7.70
2019-04-09T01:37:05.174Z,7.70
2019-04-09T01:38:06.118Z,7.80
2019-04-09T01:39:04.927Z,7.80
2019-04-09T01:40:05.222Z,7.80
2019-04-09T01:41:05.010Z,7.80
2019-04-09T01:42:05.227Z,7.80
2019-04-09T01:43:10.303Z,7.80
2019-04-09T01:44:05.349Z,7.80
2019-04-09T01:45:05.199Z,7.80
2019-04-09T01:46:05.139Z,7.80
2019-04-09T01:47:05.029Z,7.90
2019-04-09T01:48:05.346Z,7.90
2019-04-09T01:49:05.267Z,7.90
2019-04-09T01:50:04.459Z,7.90
2019-04-09T01:51:04.614Z,7.90
2019-04-09T01:52:04.941Z,7.90
2019-04-09T01:53:05.235Z,7.90
2019-04-09T01:54:05.141Z,7.90
2019-04-09T01:55:04.978Z,7.90
2019-04-09T01:56:04.431Z,7.90
2019-04-09T01:57:05.569Z,7.90
2019-04-09T01:58:04.375Z,7.90
2019-04-09T01:59:06.148Z,7.90
2019-04-09T02:00:05.231Z,8.00
2019-04-09T02:01:05.842Z,8.00
2019-04-09T02:02:04.798Z,7.90
2019-04-09T02:03:04.912Z,8.00
2019-04-09T02:04:05.878Z,8.00
2019-04-09T02:05:04.873Z,8.00
2019-04-09T02:06:04.899Z,8.00
2019-04-09T02:07:04.706Z,7.90
2019-04-09T02:08:05.736Z,8.00
2019-04-09T02:09:04.962Z,8.00
2019-04-09T02:10:04.750Z,7.90
2019-04-09T02:11:06.865Z,7.90
2019-04-09T02:12:06.086Z,7.90
2019-04-09T02:13:05.006Z,7.90
2019-04-09T02:14:05.062Z,7.90
2019-04-09T02:15:04.975Z,7.90
2019-04-09T02:16:05.166Z,7.90
2019-04-09T02:17:04.579Z,7.90
2019-04-09T02:18:05.170Z,7.90
2019-04-09T02:19:05.016Z,7.90
2019-04-09T02:20:06.011Z,7.90
2019-04-09T02:21:06.459Z,7.90
2019-04-09T02:22:04.380Z,7.90
2019-04-09T02:23:04.629Z,7.90
2019-04-09T02:24:05.158Z,7.90
2019-04-09T02:25:04.971Z,7.90
2019-04-09T02:26:04.869Z,7.80
2019-04-09T02:27:04.800Z,7.80
2019-04-09T02:28:05.004Z,7.80
2019-04-09T02:29:05.201Z,7.80
2019-04-09T02:30:05.954Z,7.80
2019-04-09T02:31:06.056Z,7.80
2019-04-09T02:32:04.529Z,7.80
2019-04-09T02:33:05.238Z,7.70
2019-04-09T02:34:04.790Z,7.70
2019-04-09T02:35:04.904Z,7.70
2019-04-09T02:36:06.114Z,7.70
2019-04-09T02:37:04.513Z,7.70
2019-04-09T02:38:05.685Z,7.70
2019-04-09T02:39:04.970Z,7.70
2019-04-09T02:40:04.927Z,7.70
2019-04-09T02:41:04.943Z,7.70
2019-04-09T02:42:04.590Z,7.70
2019-04-09T02:43:10.319Z,7.70
2019-04-09T02:44:04.814Z,7.70
2019-04-09T02:45:05.003Z,7.60
2019-04-09T02:46:05.921Z,7.60
2019-04-09T02:47:04.928Z,7.60
2019-04-09T02:48:05.132Z,7.60
2019-04-09T02:49:04.683Z,7.60
2019-04-09T02:50:06.114Z,7.60
2019-04-09T02:51:05.190Z,7.60
2019-04-09T02:52:05.044Z,7.60
2019-04-09T02:53:04.821Z,7.60
2019-04-09T02:54:04.882Z,7.50
2019-04-09T02:55:04.884Z,7.50
2019-04-09T02:56:04.454Z,7.50
2019-04-09T02:57:05.318Z,7.50
2019-04-09T02:58:05.069Z,7.50
2019-04-09T02:59:04.483Z,7.50
2019-04-09T03:00:05.428Z,7.50
2019-04-09T03:01:04.495Z,7.50
2019-04-09T03:02:05.483Z,7.50
2019-04-09T03:03:04.279Z,7.40
2019-04-09T03:04:04.612Z,7.40
2019-04-09T03:05:04.990Z,7.40
2019-04-09T03:06:04.996Z,7.30
2019-04-09T03:07:05.084Z,7.30
2019-04-09T03:08:05.119Z,7.30
2019-04-09T03:09:06.147Z,7.30
2019-04-09T03:10:05.246Z,7.30
2019-04-09T03:11:06.122Z,7.20
2019-04-09T03:12:05.015Z,7.20
2019-04-09T03:13:04.295Z,7.20
2019-04-09T03:14:04.643Z,7.20
2019-04-09T03:15:05.121Z,7.10
2019-04-09T03:16:04.907Z,7.10
2019-04-09T03:17:04.919Z,7.10
2019-04-09T03:18:04.663Z,7.10
2019-04-09T03:19:04.606Z,7.00
2019-04-09T03:20:04.708Z,7.00
2019-04-09T03:21:06.220Z,7.00
2019-04-09T03:22:04.992Z,6.90
2019-04-09T03:23:04.652Z,6.90
2019-04-09T03:24:04.530Z,6.90
2019-04-09T03:25:04.406Z,6.90
2019-04-09T03:26:05.567Z,6.80
2019-04-09T03:27:04.554Z,6.80
2019-04-09T03:28:07.939Z,6.80
2019-04-09T03:29:05.415Z,6.80
2019-04-09T03:30:05.765Z,6.70
2019-04-09T03:31:06.246Z,6.70
2019-04-09T03:32:06.127Z,6.70
2019-04-09T03:33:05.676Z,6.70
2019-04-09T03:34:04.599Z,6.70
2019-04-09T03:35:05.012Z,6.70
2019-04-09T03:36:05.130Z,6.70
2019-04-09T03:37:04.297Z,6.60
2019-04-09T03:38:04.564Z,6.60
2019-04-09T03:39:05.016Z,6.60
2019-04-09T03:40:05.033Z,6.60
2019-04-09T03:41:05.954Z,6.60
2019-04-09T03:42:04.738Z,6.60
2019-04-09T03:43:10.128Z,6.50
2019-04-09T03:44:04.714Z,6.50
2019-04-09T03:45:05.187Z,6.50
2019-04-09T03:46:05.337Z,6.50
2019-04-09T03:47:05.371Z,6.40
2019-04-09T03:48:05.125Z,6.50
2019-04-09T03:49:04.506Z,6.40
2019-04-09T03:50:05.141Z,6.40
2019-04-09T03:51:04.966Z,6.40
2019-04-09T03:52:04.470Z,6.40
2019-04-09T03:53:04.458Z,6.40
2019-04-09T03:54:04.484Z,6.40
2019-04-09T03:55:04.807Z,6.40
2019-04-09T03:56:05.426Z,6.40
2019-04-09T03:57:04.281Z,6.40
2019-04-09T03:58:13.672Z,6.40
2019-04-09T03:59:04.582Z,6.30
2019-04-09T04:00:04.340Z,6.40
2019-04-09T04:01:05.804Z,6.30
2019-04-09T04:02:04.554Z,6.30
2019-04-09T04:03:04.732Z,6.30
2019-04-09T04:04:06.006Z,6.30
2019-04-09T04:05:05.149Z,6.30
2019-04-09T04:06:05.381Z,6.30
2019-04-09T04:07:04.197Z,6.30
2019-04-09T04:08:04.664Z,6.40
2019-04-09T04:09:04.622Z,6.40
2019-04-09T04:10:06.723Z,6.40
2019-04-09T04:11:05.089Z,6.40
2019-04-09T04:12:04.579Z,6.40
2019-04-09T04:13:05.080Z,6.40
2019-04-09T04:14:04.998Z,6.40
2019-04-09T04:15:05.746Z,6.40
2019-04-09T04:16:04.893Z,6.50
2019-04-09T04:17:05.926Z,6.50
2019-04-09T04:18:05.165Z,6.50
2019-04-09T04:19:05.114Z,6.50
2019-04-09T04:20:05.157Z,6.50
2019-04-09T04:21:04.537Z,6.50
2019-04-09T04:22:05.184Z,6.50
2019-04-09T04:23:04.569Z,6.50
2019-04-09T04:24:04.578Z,6.50
2019-04-09T04:25:05.846Z,6.50
2019-04-09T04:26:05.151Z,6.50
2019-04-09T04:27:05.174Z,6.50
2019-04-09T04:28:05.088Z,6.50
2019-04-09T04:29:04.496Z,6.50
2019-04-09T04:30:04.744Z,6.50
2019-04-09T04:31:05.388Z,6.50
2019-04-09T04:32:04.231Z,6.50
2019-04-09T04:33:04.777Z,6.60
2019-04-09T04:34:06.046Z,6.60
2019-04-09T04:35:05.791Z,6.60
2019-04-09T04:36:05.243Z,6.60
2019-04-09T04:37:05.094Z,6.60
2019-04-09T04:38:04.464Z,6.60
2019-04-09T04:39:04.488Z,6.60
2019-04-09T04:40:05.639Z,6.60
2019-04-09T04:41:05.567Z,6.60
2019-04-09T04:42:07.330Z,6.60
2019-04-09T04:43:10.432Z,6.60
2019-04-09T04:44:05.967Z,6.60
2019-04-09T04:45:05.809Z,6.60
2019-04-09T04:46:04.829Z,6.60
2019-04-09T04:47:05.448Z,6.60
2019-04-09T04:48:04.755Z,6.60
2019-04-09T04:49:04.641Z,6.60
2019-04-09T04:50:05.752Z,6.60
2019-04-09T04:51:04.569Z,6.60
2019-04-09T04:52:05.633Z,6.60
2019-04-09T04:53:04.617Z,6.60
2019-04-09T04:54:05.724Z,6.50
2019-04-09T04:55:04.466Z,6.60
2019-04-09T04:56:05.687Z,6.60
2019-04-09T04:57:04.437Z,6.60
2019-04-09T04:58:05.017Z,6.60
2019-04-09T04:59:05.151Z,6.60
2019-04-09T05:00:04.898Z,6.60
2019-04-09T05:01:04.211Z,6.60
2019-04-09T05:02:04.760Z,6.60
2019-04-09T05:03:04.637Z,6.60
2019-04-09T05:04:04.877Z,6.60
2019-04-09T05:05:04.933Z,6.60
2019-04-09T05:06:05.185Z,6.60
2019-04-09T05:07:05.430Z,6.60
2019-04-09T05:08:04.334Z,6.60
2019-04-09T05:09:04.301Z,6.60
2019-04-09T05:10:05.534Z,6.60
2019-04-09T05:11:04.458Z,6.60
2019-04-09T05:12:05.510Z,6.60
2019-04-09T05:13:04.558Z,6.60
2019-04-09T05:14:05.299Z,6.60
2019-04-09T05:15:05.097Z,6.60
2019-04-09T05:16:06.062Z,6.60
2019-04-09T05:17:04.980Z,6.60
2019-04-09T05:18:04.396Z,6.60
2019-04-09T05:19:04.782Z,6.60
2019-04-09T05:20:11.032Z,6.60
2019-04-09T05:21:04.489Z,6.60
2019-04-09T05:22:04.809Z,6.60
2019-04-09T05:23:05.342Z,6.50
2019-04-09T05:24:04.352Z,6.50
2019-04-09T05:25:05.080Z,6.50
2019-04-09T05:26:04.867Z,6.50
2019-04-09T05:27:04.556Z,6.50
2019-04-09T05:28:04.705Z,6.50
2019-04-09T05:29:07.376Z,6.50
2019-04-09T05:30:04.637Z,6.50
2019-04-09T05:31:04.532Z,6.50
2019-04-09T05:32:05.585Z,6.50
2019-04-09T05:33:04.970Z,6.40
2019-04-09T05:34:05.176Z,6.40
2019-04-09T05:35:05.508Z,6.40
2019-04-09T05:36:04.545Z,6.40
2019-04-09T05:37:04.555Z,6.40
2019-04-09T05:38:05.089Z,6.40
2019-04-09T05:39:05.258Z,6.40
2019-04-09T05:40:04.545Z,6.40
2019-04-09T05:41:05.567Z,6.40
2019-04-09T05:42:04.334Z,6.40
2019-04-09T05:43:04.501Z,6.40
2019-04-09T05:44:04.927Z,6.40
2019-04-09T05:45:05.496Z,6.40
2019-04-09T05:46:04.314Z,6.40
2019-04-09T05:47:05.211Z,6.40
2019-04-09T05:48:05.314Z,6.40
2019-04-09T05:49:05.398Z,6.40
2019-04-09T05:50:05.264Z,6.40
2019-04-09T05:51:04.367Z,6.40
2019-04-09T05:52:06.103Z,6.40
2019-04-09T05:53:05.893Z,6.40
2019-04-09T05:54:09.731Z,6.40
2019-04-09T05:55:05.134Z,6.40
2019-04-09T05:56:05.472Z,6.40
2019-04-09T05:57:04.633Z,6.30
2019-04-09T05:58:05.465Z,6.30
2019-04-09T05:59:06.642Z,6.30
2019-04-09T06:00:04.610Z,6.30
2019-04-09T06:01:04.618Z,6.20
2019-04-09T06:02:05.345Z,6.20
2019-04-09T06:03:04.237Z,6.20
2019-04-09T06:04:04.795Z,6.20
2019-04-09T06:05:04.700Z,6.20
2019-04-09T06:06:05.065Z,6.20
2019-04-09T06:07:04.987Z,6.20
2019-04-09T06:08:05.502Z,6.20
2019-04-09T06:09:04.394Z,6.20
2019-04-09T06:10:04.641Z,6.20
2019-04-09T06:11:04.773Z,6.20
2019-04-09T06:12:05.083Z,6.20
2019-04-09T06:13:05.044Z,6.20
2019-04-09T06:14:10.488Z,6.20
2019-04-09T06:15:05.199Z,6.20
2019-04-09T06:16:05.720Z,6.20
2019-04-09T06:17:05.177Z,6.10
2019-04-09T06:18:05.850Z,6.10
2019-04-09T06:19:05.078Z,6.20
2019-04-09T06:20:05.208Z,6.10
2019-04-09T06:21:05.749Z,6.20
2019-04-09T06:22:05.292Z,6.20
2019-04-09T06:23:04.345Z,6.20
2019-04-09T06:24:04.743Z,6.20
2019-04-09T06:25:04.988Z,6.20
2019-04-09T06:26:04.802Z,6.20
2019-04-09T06:27:04.890Z,6.20
2019-04-09T06:28:05.782Z,6.20
2019-04-09T06:29:14.577Z,6.20
2019-04-09T06:30:04.932Z,6.20
2019-04-09T06:31:04.866Z,6.20
2019-04-09T06:32:05.154Z,6.20
2019-04-09T06:33:05.902Z,6.20
2019-04-09T06:34:04.806Z,6.20
2019-04-09T06:35:05.498Z,6.20
2019-04-09T06:36:05.813Z,6.20
2019-04-09T06:37:04.584Z,6.20
2019-04-09T06:38:05.009Z,6.20
2019-04-09T06:39:04.375Z,6.30
2019-04-09T06:40:05.292Z,6.30
2019-04-09T06:41:05.164Z,6.30
2019-04-09T06:42:04.654Z,6.30
2019-04-09T06:43:10.515Z,6.30
2019-04-09T06:44:04.386Z,6.30
2019-04-09T06:45:04.202Z,6.30
2019-04-09T06:46:05.204Z,6.30
2019-04-09T06:47:04.886Z,6.30
2019-04-09T06:48:04.879Z,6.30
2019-04-09T06:49:04.807Z,6.30
2019-04-09T06:50:04.763Z,6.30
2019-04-09T06:51:05.368Z,6.30
2019-04-09T06:52:06.093Z,6.30
2019-04-09T06:53:04.969Z,6.30
2019-04-09T06:54:04.348Z,6.30
2019-04-09T06:55:09.523Z,6.30
2019-04-09T06:56:05.307Z,6.30
2019-04-09T06:57:05.916Z,6.30
2019-04-09T06:58:06.067Z,6.30
2019-04-09T06:59:05.030Z,6.30
2019-04-09T07:00:05.249Z,6.30
2019-04-09T07:01:04.561Z,6.30
2019-04-09T07:02:04.546Z,6.30
2019-04-09T07:03:11.244Z,6.30
2019-04-09T07:04:05.736Z,6.30
2019-04-09T07:05:04.868Z,6.30
2019-04-09T07:06:04.793Z,6.30
2019-04-09T07:07:04.979Z,6.30
2019-04-09T07:08:05.109Z,6.30
2019-04-09T07:09:04.307Z,6.30
2019-04-09T07:10:05.588Z,6.30
2019-04-09T07:11:11.380Z,6.30
2019-04-09T07:12:07.385Z,6.30
2019-04-09T07:13:05.179Z,6.30
2019-04-09T07:14:04.958Z,6.30
2019-04-09T07:15:04.997Z,6.30
2019-04-09T07:16:05.381Z,6.30
2019-04-09T07:17:04.333Z,6.30
2019-04-09T07:18:04.907Z,6.30
2019-04-09T07:19:05.075Z,6.30
2019-04-09T07:20:05.371Z,6.30
2019-04-09T07:21:05.526Z,6.30
2019-04-09T07:22:04.661Z,6.30
2019-04-09T07:23:04.493Z,6.30
2019-04-09T07:24:04.803Z,6.30
2019-04-09T07:25:05.632Z,6.30
2019-04-09T07:26:05.211Z,6.40
2019-04-09T07:27:05.127Z,6.40
2019-04-09T07:28:04.496Z,6.40
2019-04-09T07:29:04.535Z,6.40
2019-04-09T07:30:08.428Z,6.40
2019-04-09T07:31:06.144Z,6.40
2019-04-09T07:32:05.619Z,6.50
2019-04-09T07:33:10.324Z,6.50
2019-04-09T07:34:05.621Z,6.50
2019-04-09T07:35:04.775Z,6.50
2019-04-09T07:36:06.192Z,6.50
2019-04-09T07:37:07.542Z,6.50
2019-04-09T07:38:05.553Z,6.50
2019-04-09T07:39:04.444Z,6.50
2019-04-09T07:40:04.534Z,6.50
2019-04-09T07:41:07.999Z,6.60
2019-04-09T07:42:04.191Z,6.60
2019-04-09T07:43:10.007Z,6.60
2019-04-09T07:44:05.508Z,6.50
2019-04-09T07:45:08.501Z,6.50
2019-04-09T07:46:04.612Z,6.50
2019-04-09T07:47:04.427Z,6.50
2019-04-09T07:48:04.501Z,6.50
2019-04-09T07:49:05.476Z,6.50
2019-04-09T07:50:07.864Z,6.50
2019-04-09T07:51:05.264Z,6.50
2019-04-09T07:52:05.119Z,6.50
2019-04-09T07:53:04.660Z,6.40
2019-04-09T07:54:06.173Z,6.50
2019-04-09T07:55:04.905Z,6.50
2019-04-09T07:56:04.934Z,6.50
2019-04-09T07:57:05.860Z,6.50
2019-04-09T07:58:07.994Z,6.50
2019-04-09T07:59:05.341Z,6.50
2019-04-09T08:00:14.116Z,6.50
2019-04-09T08:01:05.016Z,6.50
2019-04-09T08:02:06.166Z,6.50
2019-04-09T08:03:05.089Z,6.50
2019-04-09T08:04:06.027Z,6.50
2019-04-09T08:05:04.681Z,6.50
2019-04-09T08:06:04.710Z,6.50
2019-04-09T08:07:06.195Z,6.60
2019-04-09T08:08:06.557Z,6.60
2019-04-09T08:09:04.651Z,6.60
2019-04-09T08:10:06.057Z,6.60
2019-04-09T08:11:06.956Z,6.60
2019-04-09T08:12:04.816Z,6.70
2019-04-09T08:13:05.548Z,6.60
2019-04-09T08:14:04.597Z,6.70
2019-04-09T08:15:05.998Z,6.70
2019-04-09T08:16:06.724Z,6.70
2019-04-09T08:17:04.538Z,6.70
2019-04-09T08:18:08.089Z,6.70
2019-04-09T08:19:05.025Z,6.70
2019-04-09T08:20:05.698Z,6.70
2019-04-09T08:21:04.808Z,6.70
2019-04-09T08:22:07.205Z,6.70
2019-04-09T08:23:04.866Z,6.70
2019-04-09T08:24:04.602Z,6.80
2019-04-09T08:25:04.741Z,6.80
2019-04-09T08:26:05.256Z,6.80
2019-04-09T08:27:08.108Z,6.80
2019-04-09T08:28:04.912Z,6.80
2019-04-09T08:29:05.001Z,6.80
2019-04-09T08:30:17.812Z,6.80
2019-04-09T08:31:04.942Z,6.80
2019-04-09T08:32:08.915Z,6.80
2019-04-09T08:33:04.719Z,6.80
2019-04-09T08:34:05.061Z,6.80
2019-04-09T08:35:04.928Z,6.80
2019-04-09T08:36:09.116Z,6.80
2019-04-09T08:37:05.040Z,6.80
2019-04-09T08:38:05.028Z,6.80
2019-04-09T08:39:04.854Z,6.80
2019-04-09T08:40:08.802Z,6.80
2019-04-09T08:41:04.627Z,6.80
2019-04-09T08:42:05.110Z,6.90
2019-04-09T08:43:06.363Z,6.80
2019-04-09T08:44:06.534Z,6.90
2019-04-09T08:45:11.226Z,6.90
2019-04-09T08:46:05.924Z,6.90
2019-04-09T08:47:05.117Z,6.90
2019-04-09T08:48:08.371Z,6.90
2019-04-09T08:49:04.772Z,6.90
2019-04-09T08:50:04.895Z,6.90
2019-04-09T08:51:05.676Z,6.80
2019-04-09T08:52:07.910Z,6.90
2019-04-09T08:53:04.647Z,6.80
2019-04-09T08:54:05.067Z,6.80
2019-04-09T08:55:05.261Z,6.90
2019-04-09T08:56:06.642Z,6.90
2019-04-09T08:57:04.924Z,6.90
2019-04-09T08:58:04.561Z,6.90
2019-04-09T08:59:05.035Z,6.90
2019-04-09T09:00:05.700Z,6.90
2019-04-09T09:01:31.610Z,6.90
2019-04-09T09:02:15.375Z,6.90
2019-04-09T09:03:04.514Z,6.90
2019-04-09T09:04:08.643Z,6.90
2019-04-09T09:05:12.750Z,7.00
2019-04-09T09:06:07.822Z,7.00
2019-04-09T09:07:05.171Z,7.00
2019-04-09T09:08:07.201Z,7.00
2019-04-09T09:09:07.882Z,7.00
2019-04-09T09:10:05.609Z,7.00
2019-04-09T09:11:04.526Z,7.10
2019-04-09T09:12:07.786Z,7.10
2019-04-09T09:13:05.324Z,7.10
2019-04-09T09:14:05.148Z,7.10
2019-04-09T09:15:04.546Z,7.10
2019-04-09T09:16:04.474Z,7.10
2019-04-09T09:17:07.095Z,7.20
2019-04-09T09:18:05.537Z,7.20
2019-04-09T09:19:10.696Z,7.20
2019-04-09T09:20:05.261Z,7.20
2019-04-09T09:21:13.648Z,7.20
2019-04-09T09:22:04.931Z,7.20
2019-04-09T09:23:06.004Z,7.20
2019-04-09T09:24:06.247Z,7.20
2019-04-09T09:25:06.086Z,7.20
2019-04-09T09:26:06.752Z,7.30
2019-04-09T09:27:08.529Z,7.30
2019-04-09T09:28:05.608Z,7.30
2019-04-09T09:29:06.638Z,7.30
2019-04-09T09:30:04.578Z,7.30
2019-04-09T09:31:13.203Z,7.30
2019-04-09T09:32:05.938Z,7.40
2019-04-09T09:33:08.540Z,7.40
2019-04-09T09:34:04.740Z,7.40
2019-04-09T09:35:05.506Z,7.40
2019-04-09T09:36:06.095Z,7.40
2019-04-09T09:37:08.752Z,7.40
2019-04-09T09:38:04.943Z,7.40
2019-04-09T09:39:05.545Z,7.50
2019-04-09T09:40:05.074Z,7.50
2019-04-09T09:41:06.194Z,7.50
2019-04-09T09:42:04.380Z,7.50
2019-04-09T09:43:05.687Z,7.50
2019-04-09T09:44:04.712Z,7.50
2019-04-09T09:45:05.285Z,7.50
2019-04-09T09:46:04.685Z,7.50
2019-04-09T09:47:04.866Z,7.60
2019-04-09T09:48:05.137Z,7.60
2019-04-09T09:49:04.987Z,7.60
2019-04-09T09:50:07.537Z,7.60
2019-04-09T09:51:05.487Z,7.60
2019-04-09T09:52:05.218Z,7.60
2019-04-09T09:53:09.784Z,7.60
2019-04-09T09:54:06.892Z,7.60
2019-04-09T09:55:04.619Z,7.60
2019-04-09T09:56:04.957Z,7.60
2019-04-09T09:57:07.762Z,7.60
2019-04-09T09:58:04.937Z,7.60
2019-04-09T09:59:04.924Z,7.60
2019-04-09T10:00:07.221Z,7.60
2019-04-09T10:01:07.900Z,7.60
2019-04-09T10:02:06.315Z,7.60
2019-04-09T10:03:08.064Z,7.60
2019-04-09T10:04:04.936Z,7.60
2019-04-09T10:05:05.383Z,7.60
2019-04-09T10:06:12.424Z,7.70
2019-04-09T10:07:05.097Z,7.60
2019-04-09T10:08:07.711Z,7.60
2019-04-09T10:09:04.647Z,7.60
2019-04-09T10:10:05.250Z,7.60
2019-04-09T10:11:04.789Z,7.60
2019-04-09T10:12:08.829Z,7.60
2019-04-09T10:13:10.112Z,7.60
2019-04-09T10:14:05.610Z,7.60
2019-04-09T10:15:06.963Z,7.60
2019-04-09T10:16:05.102Z,7.60
2019-04-09T10:17:04.643Z,7.60
2019-04-09T10:18:05.965Z,7.60
2019-04-09T10:19:11.332Z,7.60
2019-04-09T10:20:05.464Z,7.60
2019-04-09T10:21:04.640Z,7.60
2019-04-09T10:22:04.922Z,7.60
2019-04-09T10:23:05.165Z,7.60
2019-04-09T10:24:08.805Z,7.60
2019-04-09T10:25:05.782Z,7.60
2019-04-09T10:26:05.953Z,7.60
2019-04-09T10:27:04.508Z,7.60
2019-04-09T10:28:04.678Z,7.60
2019-04-09T10:29:09.240Z,7.60
2019-04-09T10:30:07.488Z,7.60
2019-04-09T10:31:17.587Z,7.70
2019-04-09T10:32:06.682Z,7.60
2019-04-09T10:33:04.655Z,7.70
2019-04-09T10:34:05.925Z,7.70
2019-04-09T10:35:06.124Z,7.70
2019-04-09T10:36:05.582Z,7.70
2019-04-09T10:37:08.347Z,7.70
2019-04-09T10:38:05.390Z,7.70
2019-04-09T10:39:05.404Z,7.70
2019-04-09T10:40:07.408Z,7.70
2019-04-09T10:41:16.221Z,7.70
2019-04-09T10:42:06.374Z,7.70
2019-04-09T10:43:12.220Z,7.70
2019-04-09T10:44:04.319Z,7.70
2019-04-09T10:45:04.561Z,7.70
2019-04-09T10:46:04.892Z,7.70
2019-04-09T10:47:07.416Z,7.80
2019-04-09T10:48:06.106Z,7.80
2019-04-09T10:49:05.722Z,7.80
2019-04-09T10:50:05.606Z,7.80
2019-04-09T10:51:07.000Z,7.90
2019-04-09T10:52:05.681Z,7.90
2019-04-09T10:53:04.835Z,7.90
2019-04-09T10:54:06.701Z,7.90
2019-04-09T10:55:05.603Z,7.90
2019-04-09T10:56:05.587Z,8.00
2019-04-09T10:57:07.546Z,7.90
2019-04-09T10:58:05.011Z,7.90
2019-04-09T10:59:04.822Z,7.90
2019-04-09T11:00:06.262Z,8.00
2019-04-09T11:01:05.082Z,8.00
2019-04-09T11:02:05.080Z,8.00
2019-04-09T11:03:04.789Z,8.00
2019-04-09T11:04:07.805Z,8.00
2019-04-09T11:05:04.771Z,8.00
2019-04-09T11:06:04.461Z,8.00
2019-04-09T11:07:05.932Z,8.00
2019-04-09T11:08:06.309Z,8.00
2019-04-09T11:09:04.363Z,8.00
2019-04-09T11:10:05.419Z,8.00
2019-04-09T11:11:04.705Z,8.00
2019-04-09T11:12:05.093Z,8.00
2019-04-09T11:13:05.448Z,8.00
2019-04-09T11:14:07.387Z,8.00
2019-04-09T11:15:05.303Z,8.00
2019-04-09T11:16:05.957Z,8.00
2019-04-09T11:17:06.135Z,8.00
2019-04-09T11:18:08.345Z,8.00
2019-04-09T11:19:05.613Z,8.00
2019-04-09T11:20:04.703Z,8.00
2019-04-09T11:21:06.458Z,8.00
2019-04-09T11:22:05.943Z,8.00
2019-04-09T11:23:04.970Z,8.00
2019-04-09T11:24:04.905Z,8.00
2019-04-09T11:25:04.797Z,8.10
2019-04-09T11:26:08.092Z,8.10
2019-04-09T11:27:05.370Z,8.10
2019-04-09T11:28:06.735Z,8.10
2019-04-09T11:29:04.780Z,8.00
2019-04-09T11:30:05.372Z,8.00
2019-04-09T11:31:04.353Z,8.00
2019-04-09T11:32:06.671Z,8.00
2019-04-09T11:33:04.815Z,8.00
2019-04-09T11:34:04.849Z,8.00
2019-04-09T11:35:04.364Z,8.00
2019-04-09T11:36:05.047Z,7.90
2019-04-09T11:37:05.453Z,7.90
2019-04-09T11:38:05.509Z,7.90
2019-04-09T11:39:04.499Z,7.90
2019-04-09T11:40:05.643Z,7.90
2019-04-09T11:41:06.855Z,8.00
2019-04-09T11:42:05.389Z,8.00
2019-04-09T11:43:09.265Z,8.00
2019-04-09T11:44:04.828Z,8.00
2019-04-09T11:45:05.057Z,8.00
2019-04-09T11:46:04.806Z,8.00
2019-04-09T11:47:06.005Z,8.00
2019-04-09T11:48:04.339Z,8.00
2019-04-09T11:49:04.516Z,8.00
2019-04-09T11:50:04.597Z,8.00
2019-04-09T11:51:05.455Z,8.00
2019-04-09T11:52:04.470Z,8.00
2019-04-09T11:53:05.888Z,7.90
2019-04-09T11:54:04.689Z,8.00
2019-04-09T11:55:05.216Z,8.00
2019-04-09T11:56:04.413Z,8.00
2019-04-09T11:57:04.667Z,8.00
2019-04-09T11:58:05.467Z,8.00
2019-04-09T11:59:04.365Z,8.00
2019-04-09T12:00:05.479Z,8.00
2019-04-09T12:01:04.552Z,8.00
2019-04-09T12:02:08.261Z,7.90
2019-04-09T12:03:10.601Z,8.00
2019-04-09T12:04:04.173Z,8.00
2019-04-09T12:05:04.645Z,8.00
2019-04-09T12:06:04.967Z,8.00
2019-04-09T12:07:05.985Z,8.00
2019-04-09T12:08:04.976Z,8.00
2019-04-09T12:09:04.894Z,8.00
2019-04-09T12:10:04.794Z,8.00
2019-04-09T12:11:04.892Z,8.00
2019-04-09T12:12:05.252Z,8.00
2019-04-09T12:13:05.006Z,8.00
2019-04-09T12:14:04.677Z,8.00
2019-04-09T12:15:04.625Z,8.00
2019-04-09T12:16:04.780Z,8.00
2019-04-09T12:17:04.607Z,8.00
2019-04-09T12:18:04.679Z,8.00
2019-04-09T12:19:04.785Z,8.00
2019-04-09T12:20:09.334Z,8.00
2019-04-09T12:21:05.193Z,8.00
2019-04-09T12:22:05.552Z,8.00
2019-04-09T12:23:05.661Z,8.00
2019-04-09T12:24:04.975Z,8.00
2019-04-09T12:25:04.219Z,8.00
2019-04-09T12:26:04.631Z,8.00
2019-04-09T12:27:06.634Z,8.00
2019-04-09T12:28:04.635Z,8.00
2019-04-09T12:29:08.464Z,8.00
2019-04-09T12:30:05.117Z,8.00
2019-04-09T12:31:04.399Z,8.00
2019-04-09T12:32:13.537Z,8.10
2019-04-09T12:33:06.299Z,8.10
2019-04-09T12:34:04.690Z,8.10
2019-04-09T12:35:06.612Z,8.10
2019-04-09T12:36:04.909Z,8.10
2019-04-09T12:37:05.029Z,8.10
2019-04-09T12:38:04.915Z,8.10
2019-04-09T12:39:04.848Z,8.10
2019-04-09T12:40:05.006Z,8.10
2019-04-09T12:41:04.268Z,8.10
2019-04-09T12:42:04.700Z,8.10
2019-04-09T12:43:10.531Z,8.10
2019-04-09T12:44:05.091Z,8.10
2019-04-09T12:45:04.436Z,8.10
2019-04-09T12:46:05.187Z,8.20
2019-04-09T12:47:04.618Z,8.20
2019-04-09T12:48:04.830Z,8.20
2019-04-09T12:49:04.341Z,8.20
2019-04-09T12:50:05.525Z,8.20
2019-04-09T12:51:04.841Z,8.20
2019-04-09T12:52:04.911Z,8.20
2019-04-09T12:53:05.731Z,8.20
2019-04-09T12:54:04.691Z,8.20
2019-04-09T12:55:05.089Z,8.20
2019-04-09T12:56:05.239Z,8.20
2019-04-09T12:57:05.649Z,8.30
2019-04-09T12:58:04.729Z,8.30
2019-04-09T12:59:05.719Z,8.30
2019-04-09T13:00:04.596Z,8.30
2019-04-09T13:01:04.741Z,8.30
2019-04-09T13:02:04.950Z,8.30
2019-04-09T13:03:04.949Z,8.40
2019-04-09T13:04:05.223Z,8.40
2019-04-09T13:05:05.674Z,8.40
2019-04-09T13:06:05.326Z,8.40
2019-04-09T13:07:04.921Z,8.40
2019-04-09T13:08:04.210Z,8.40
2019-04-09T13:09:04.750Z,8.40
2019-04-09T13:10:04.710Z,8.40
2019-04-09T13:11:04.547Z,8.40
2019-04-09T13:12:05.064Z,8.40
2019-04-09T13:13:04.757Z,8.40
2019-04-09T13:14:04.839Z,8.40
2019-04-09T13:15:04.394Z,8.40
2019-04-09T13:16:05.137Z,8.50
2019-04-09T13:17:05.542Z,8.50
2019-04-09T13:18:04.697Z,8.50